Observation data for Tulia on 05/26/2019      Previous  Date  Next       Current Mesonet Observations  Soil Data  Daily Summary Page  Observations in Plain Language
KTIS 260500Z 17010KT 19/17 A2996 RMK A01 T01920172  RH  092%=      5-min Rain = 0
KTIS 260505Z 17010KT 19/17 A2996 RMK A01 T01920172  RH  093%=      5-min Rain = 0
KTIS 260510Z 17010KT 19/17 A2996 RMK A01 T01930172  RH  092%=      5-min Rain = 0
KTIS 260515Z 18010KT 19/17 A2997 RMK A01 T01930172  RH  093%=      5-min Rain = 0
KTIS 260520Z 19008KT 19/17 A2997 RMK A01 T01920172  RH  093%=      5-min Rain = 0
KTIS 260525Z 18008KT 19/17 A2997 RMK A01 T01920172  RH  093%=      5-min Rain = 0
KTIS 260530Z 18009KT 19/17 A2997 RMK A01 T01920172  RH  093%=      5-min Rain = 0
KTIS 260535Z 18010KT 19/17 A2997 RMK A01 T01920172  RH  092%=      5-min Rain = 0
KTIS 260540Z 17010KT 19/17 A2997 RMK A01 T01930172  RH  092%=      5-min Rain = 0
KTIS 260545Z 17009KT 19/17 A2997 RMK A01 T01920171  RH  092%=      5-min Rain = 0
KTIS 260550Z 17009KT 19/17 A2997 RMK A01 T01920172  RH  092%=      5-min Rain = 0
KTIS 260555Z 17008KT 19/17 A2997 RMK A01 T01910170  RH  092%=      5-min Rain = 0
KTIS 260600Z 18008KT 19/17 A2997 RMK A01 T01900170  RH  093%=      5-min Rain = 0
KTIS 260605Z 18008KT 19/17 A2997 RMK A01 T01900170  RH  093%=      5-min Rain = 0
KTIS 260610Z 18008KT 19/17 A2997 RMK A01 T01900170  RH  093%=      5-min Rain = 0
KTIS 260615Z 18008KT 19/17 A2997 RMK A01 T01890169  RH  093%=      5-min Rain = 0
KTIS 260620Z 18007KT 19/17 A2998 RMK A01 T01880168  RH  093%=      5-min Rain = 0
KTIS 260625Z 18007KT 19/17 A2998 RMK A01 T01870168  RH  093%=      5-min Rain = 0
KTIS 260630Z 17007KT 19/17 A2998 RMK A01 T01870168  RH  093%=      5-min Rain = 0
KTIS 260635Z 16007KT 19/17 A2998 RMK A01 T01870168  RH  093%=      5-min Rain = 0
KTIS 260640Z 16006KT 19/17 A2998 RMK A01 T01860167  RH  093%=      5-min Rain = 0
KTIS 260645Z 13006KT 18/17 A2998 RMK A01 T01830165  RH  094%=      5-min Rain = 0
KTIS 260650Z 08007KT 18/16 A2998 RMK A01 T01780160  RH  094%=      5-min Rain = 0
KTIS 260655Z 08007KT 17/16 A2998 RMK A01 T01710156  RH  095%=      5-min Rain = 0
KTIS 260700Z 10006KT 17/16 A2998 RMK A01 T01700156  RH  096%=      5-min Rain = 0
KTIS 260705Z 11006KT 17/16 A2998 RMK A01 T01700157  RH  096%=      5-min Rain = 0
KTIS 260710Z 13005KT 17/16 A2998 RMK A01 T01710158  RH  097%=      5-min Rain = 0
KTIS 260715Z 14005KT 17/16 A2998 RMK A01 T01690157  RH  097%=      5-min Rain = 0
KTIS 260720Z 13005KT 17/16 A2998 RMK A01 T01690156  RH  097%=      5-min Rain = 0
KTIS 260725Z 12004KT 17/16 A2998 RMK A01 T01680156  RH  097%=      5-min Rain = 0
KTIS 260730Z 10006KT 17/15 A2999 RMK A01 T01660154  RH  097%=      5-min Rain = 0
KTIS 260735Z 09006KT 17/15 A2999 RMK A01 T01660154  RH  097%=      5-min Rain = 0
KTIS 260740Z 09006KT 17/16 A2999 RMK A01 T01660155  RH  097%=      5-min Rain = 0
KTIS 260745Z 10007KT 17/16 A2999 RMK A01 T01670156  RH  098%=      5-min Rain = 0
KTIS 260750Z 12006KT 17/16 A2998 RMK A01 T01680157  RH  098%=      5-min Rain = 0
KTIS 260755Z 14006KT 17/16 A2998 RMK A01 T01680157  RH  098%=      5-min Rain = 0
KTIS 260800Z 15007KT 17/16 A2998 RMK A01 T01690159  RH  098%=      5-min Rain = 0
KTIS 260805Z 16007KT 17/16 A2998 RMK A01 T01710160  RH  098%=      5-min Rain = 0
KTIS 260810Z 15006KT 17/16 A2998 RMK A01 T01700160  RH  098%=      5-min Rain = 0
KTIS 260815Z 14005KT 17/16 A2998 RMK A01 T01690158  RH  098%=      5-min Rain = 0
KTIS 260820Z 13004KT 17/16 A2998 RMK A01 T01680157  RH  098%=      5-min Rain = 0
KTIS 260825Z 12004KT 17/16 A2998 RMK A01 T01660155  RH  098%=      5-min Rain = 0
KTIS 260830Z 11004KT 17/16 A2999 RMK A01 T01660155  RH  098%=      5-min Rain = 0
KTIS 260835Z 10004KT 16/15 A2998 RMK A01 T01640153  RH  098%=      5-min Rain = 0
KTIS 260840Z 10004KT 16/15 A2999 RMK A01 T01630152  RH  098%=      5-min Rain = 0
KTIS 260845Z 10003KT 16/15 A2999 RMK A01 T01620151  RH  098%=      5-min Rain = 0
KTIS 260850Z 08004KT 16/15 A2999 RMK A01 T01580147  RH  098%=      5-min Rain = 0
KTIS 260855Z 08005KT 16/15 A2999 RMK A01 T01560146  RH  098%=      5-min Rain = 0
KTIS 260900Z 07006KT 16/15 A2999 RMK A01 T01570147  RH  098%=      5-min Rain = 0
KTIS 260905Z 08006KT 16/15 A2999 RMK A01 T01600150  RH  098%=      5-min Rain = 0
KTIS 260910Z 08005KT 16/15 A2999 RMK A01 T01590150  RH  098%=      5-min Rain = 0
KTIS 260915Z 09006KT 16/15 A2999 RMK A01 T01600150  RH  098%=      5-min Rain = 0
KTIS 260920Z 10005KT 16/15 A2999 RMK A01 T01600150  RH  098%=      5-min Rain = 0
KTIS 260925Z 10005KT 16/15 A2999 RMK A01 T01590150  RH  098%=      5-min Rain = 0
KTIS 260930Z 10006KT 16/15 A2999 RMK A01 T01580148  RH  098%=      5-min Rain = 0
KTIS 260935Z 09005KT 16/15 A2999 RMK A01 T01580148  RH  098%=      5-min Rain = 0
KTIS 260940Z 09004KT 16/15 A2999 RMK A01 T01580148  RH  099%=      5-min Rain = 0
KTIS 260945Z 09003KT 16/15 A2999 RMK A01 T01570148  RH  098%=      5-min Rain = 0
KTIS 260950Z 09003KT 16/15 A2999 RMK A01 T01550146  RH  098%=      5-min Rain = 0
KTIS 260955Z 08004KT 15/15 A2999 RMK A01 T01540145  RH  098%=      5-min Rain = 0
KTIS 261000Z 08004KT 15/14 A30 RMK A01 T01520143  RH  098%=      5-min Rain = 0
KTIS 261005Z 07004KT 15/14 A30 RMK A01 T01510142  RH  098%=      5-min Rain = 0
KTIS 261010Z 07004KT 15/14 A30 RMK A01 T01510142  RH  098%=      5-min Rain = 0
KTIS 261015Z 08004KT 15/14 A2999 RMK A01 T01510142  RH  098%=      5-min Rain = 0
KTIS 261020Z 08004KT 15/14 A2999 RMK A01 T01510142  RH  099%=      5-min Rain = 0
KTIS 261025Z 08004KT 15/14 A2999 RMK A01 T01490140  RH  099%=      5-min Rain = 0
KTIS 261030Z 09004KT 15/14 A2999 RMK A01 T01490140  RH  099%=      5-min Rain = 0
KTIS 261035Z 10004KT 15/14 A2999 RMK A01 T01490140  RH  099%=      5-min Rain = 0
KTIS 261040Z 11005KT 15/14 A2999 RMK A01 T01490140  RH  099%=      5-min Rain = 0
KTIS 261045Z 11005KT 15/14 A30 RMK A01 T01510142  RH  099%=      5-min Rain = 0
KTIS 261050Z 12004KT 15/14 A30 RMK A01 T01530144  RH  099%=      5-min Rain = 0
KTIS 261055Z 12004KT 15/14 A30 RMK A01 T01510143  RH  099%=      5-min Rain = 0
KTIS 261100Z 11005KT 15/15 A30 RMK A01 T01540145  RH  099%=      5-min Rain = 0
KTIS 261105Z 10005KT 16/15 A30 RMK A01 T01560148  RH  099%=      5-min Rain = 0
KTIS 261110Z 10005KT 16/15 A30 RMK A01 T01580149  RH  099%=      5-min Rain = 0
KTIS 261115Z 10005KT 16/15 A30 RMK A01 T01600152  RH  099%=      5-min Rain = 0
KTIS 261120Z 11004KT 16/15 A30 RMK A01 T01610153  RH  099%=      5-min Rain = 0
KTIS 261125Z 11004KT 16/15 A30 RMK A01 T01610153  RH  099%=      5-min Rain = 0
KTIS 261130Z 12004KT 16/15 A30 RMK A01 T01620153  RH  099%=      5-min Rain = 0
KTIS 261135Z 12004KT 16/15 A30 RMK A01 T01630154  RH  099%=      5-min Rain = 0
KTIS 261140Z 12004KT 16/16 A30 RMK A01 T01640155  RH  099%=      5-min Rain = 0
KTIS 261145Z 12004KT 17/16 A30 RMK A01 T01660158  RH  099%=      5-min Rain = 0
KTIS 261150Z 12005KT 17/16 A30 RMK A01 T01680159  RH  099%=      5-min Rain = 0
KTIS 261155Z 12005KT 17/16 A3001 RMK A01 T01690160  RH  099%=      5-min Rain = 0
KTIS 261200Z 13005KT 17/16 A3001 RMK A01 T01700161  RH  099%=      5-min Rain = 0
KTIS 261205Z 13005KT 17/16 A3001 RMK A01 T01700161  RH  099%=      5-min Rain = 0
KTIS 261210Z 13005KT 17/16 A3001 RMK A01 T01710162  RH  099%=      5-min Rain = 0
KTIS 261215Z 14005KT 17/16 A3001 RMK A01 T01710162  RH  099%=      5-min Rain = 0
KTIS 261220Z 14005KT 17/16 A3001 RMK A01 T01720162  RH  099%=      5-min Rain = 0
KTIS 261225Z 14006KT 17/16 A3002 RMK A01 T01730163  RH  099%=      5-min Rain = 0
KTIS 261230Z 14006KT 17/16 A3002 RMK A01 T01740164  RH  099%=      5-min Rain = 0
KTIS 261235Z 13006KT 17/17 A3002 RMK A01 T01740165  RH  099%=      5-min Rain = 0
KTIS 261240Z 13006KT 18/17 A3001 RMK A01 T01750166  RH  099%=      5-min Rain = 0
KTIS 261245Z 13007KT 18/17 A3001 RMK A01 T01760166  RH  099%=      5-min Rain = 0
KTIS 261250Z 13006KT 18/17 A3001 RMK A01 T01770167  RH  099%=      5-min Rain = 0
KTIS 261255Z 13006KT 18/17 A3001 RMK A01 T01770168  RH  099%=      5-min Rain = 0
KTIS 261300Z 12007KT 18/17 A3001 RMK A01 T01780168  RH  099%=      5-min Rain = 0
KTIS 261305Z 12007KT 18/17 A3002 RMK A01 T01790170  RH  099%=      5-min Rain = 0
KTIS 261310Z 12006KT 18/17 A3002 RMK A01 T01800170  RH  099%=      5-min Rain = 0
KTIS 261315Z 13007KT 18/17 A3002 RMK A01 T01810171  RH  099%=      5-min Rain = 0
KTIS 261320Z 13006KT 18/17 A3002 RMK A01 T01810172  RH  099%=      5-min Rain = 0
KTIS 261325Z 13007KT 18/17 A3002 RMK A01 T01820172  RH  099%=      5-min Rain = 0
KTIS 261330Z 13008KT 18/17 A3002 RMK A01 T01830173  RH  099%=      5-min Rain = 0
KTIS 261335Z 13008KT 18/17 A3002 RMK A01 T01840174  RH  099%=      5-min Rain = 0
KTIS 261340Z 13007KT 19/18 A3002 RMK A01 T01850175  RH  099%=      5-min Rain = 0
KTIS 261345Z 13007KT 19/18 A3003 RMK A01 T01850175  RH  099%=      5-min Rain = 0
KTIS 261350Z 13008KT 19/18 A3003 RMK A01 T01860175  RH  098%=      5-min Rain = 0
KTIS 261355Z 13009KT 19/18 A3003 RMK A01 T01860176  RH  098%=      5-min Rain = 0
KTIS 261400Z 13008KT 19/18 A3003 RMK A01 T01880177  RH  098%=      5-min Rain = 0
KTIS 261405Z 13008KT 19/18 A3003 RMK A01 T01880177  RH  098%=      5-min Rain = 0
KTIS 261410Z 13010KT 19/18 A3003 RMK A01 T01890178  RH  098%=      5-min Rain = 0
KTIS 261415Z 14009KT 19/18 A3003 RMK A01 T01900179  RH  098%=      5-min Rain = 0
KTIS 261420Z 14010KT 19/18 A3003 RMK A01 T01900179  RH  098%=      5-min Rain = 0
KTIS 261425Z 14010KT 19/18 A3003 RMK A01 T01910179  RH  098%=      5-min Rain = 0
KTIS 261430Z 15009KT 19/18 A3003 RMK A01 T01910180  RH  098%=      5-min Rain = 0
KTIS 261435Z 15010KT 19/18 A3003 RMK A01 T01920180  RH  098%=      5-min Rain = 0
KTIS 261440Z 15010KT 19/18 A3003 RMK A01 T01930180  RH  098%=      5-min Rain = 0
KTIS 261445Z 15010KT 19/18 A3003 RMK A01 T01940182  RH  098%=      5-min Rain = 0
KTIS 261450Z 15011KT 20/18 A3003 RMK A01 T01950182  RH  097%=      5-min Rain = 0
KTIS 261455Z 15009KT 20/18 A3004 RMK A01 T01950182  RH  097%=      5-min Rain = 0
KTIS 261500Z 15009KT 20/18 A3004 RMK A01 T01950181  RH  097%=      5-min Rain = 0
KTIS 261505Z 15009KT 20/18 A3003 RMK A01 T01960182  RH  097%=      5-min Rain = 0
KTIS 261510Z 15010KT 20/18 A3004 RMK A01 T01970183  RH  096%=      5-min Rain = 0
KTIS 261515Z 15011KT 20/18 A3004 RMK A01 T01970182  RH  096%=      5-min Rain = 0
KTIS 261520Z 15010KT 20/18 A3004 RMK A01 T01980182  RH  095%=      5-min Rain = 0
KTIS 261525Z 15011KT 20/18 A3004 RMK A01 T01980181  RH  095%=      5-min Rain = 0
KTIS 261530Z 15010KT 20/18 A3004 RMK A01 T01990181  RH  095%=      5-min Rain = 0
KTIS 261535Z 15010KT 20/18 A3003 RMK A01 T01990182  RH  095%=      5-min Rain = 0
KTIS 261540Z 14010KT 20/18 A3003 RMK A01 T02000183  RH  095%=      5-min Rain = 0
KTIS 261545Z 14011KT 20/18 A3002 RMK A01 T02010183  RH  094%=      5-min Rain = 0
KTIS 261550Z 15011KT 20/18 A3002 RMK A01 T02010182  RH  094%=      5-min Rain = 0
KTIS 261555Z 14011KT 20/18 A3003 RMK A01 T02000181  RH  094%=      5-min Rain = 0
KTIS 261600Z 15010KT 20/18 A3002 RMK A01 T02000182  RH  094%=      5-min Rain = 0
KTIS 261605Z 15010KT 20/18 A3002 RMK A01 T02000181  RH  094%=      5-min Rain = 0
KTIS 261610Z 15009KT 20/18 A3002 RMK A01 T02000182  RH  094%=      5-min Rain = 0
KTIS 261615Z 15011KT 20/18 A3002 RMK A01 T02000182  RH  094%=      5-min Rain = 0
KTIS 261620Z 15011KT 20/18 A3002 RMK A01 T02010182  RH  094%=      5-min Rain = 0
KTIS 261625Z 15012KT 20/18 A3002 RMK A01 T02010182  RH  093%=      5-min Rain = 0
KTIS 261630Z 15011KT 20/18 A3002 RMK A01 T02020182  RH  093%=      5-min Rain = 0
KTIS 261635Z 15012KT 20/18 A3002 RMK A01 T02020182  RH  093%=      5-min Rain = 0
KTIS 261640Z 16011KT 20/18 A3002 RMK A01 T02030182  RH  093%=      5-min Rain = 0
KTIS 261645Z 16011KT 20/18 A3002 RMK A01 T02010183  RH  094%=      5-min Rain = 0
KTIS 261650Z 16012KT 20/18 A3002 RMK A01 T02010183  RH  094%=      5-min Rain = 0
KTIS 261655Z 16012KT 20/18 A3002 RMK A01 T02010183  RH  094%=      5-min Rain = 0
KTIS 261700Z 16012KT 20/18 A3002 RMK A01 T02000183  RH  095%=      5-min Rain = 0
KTIS 261705Z 16012KT 20/18 A3002 RMK A01 T02000184  RH  095%=      5-min Rain = 0
KTIS 261710Z 16011KT 20/18 A3002 RMK A01 T02000183  RH  095%=      5-min Rain = 0
KTIS 261715Z 16010KT 20/18 A3002 RMK A01 T02000184  RH  096%=      5-min Rain = 0
KTIS 261720Z 15012KT 20/18 A3002 RMK A01 T01990183  RH  095%=      5-min Rain = 0.01
KTIS 261725Z 15013G18KT 20/18 A3002 RMK A01 T01960181  RH  096%=      5-min Rain = 0
KTIS 261730Z 15012KT 20/18 A3002 RMK A01 T01970182  RH  096%=      5-min Rain = 0
KTIS 261735Z 15012KT 20/18 A3002 RMK A01 T01970182  RH  096%=      5-min Rain = 0
KTIS 261740Z 15012KT 20/18 A3002 RMK A01 T01970182  RH  096%=      5-min Rain = 0
KTIS 261745Z 15011G16KT 20/18 A3002 RMK A01 T01960182  RH  097%=      5-min Rain = 0
KTIS 261750Z 15012KT 20/18 A3002 RMK A01 T01960182  RH  097%=      5-min Rain = 0
KTIS 261755Z 15011KT 20/18 A3002 RMK A01 T01960182  RH  097%=      5-min Rain = 0
KTIS 261800Z 15012KT 20/18 A3002 RMK A01 T01960182  RH  097%=      5-min Rain = 0
KTIS 261805Z 15012KT 20/18 A3001 RMK A01 T01960182  RH  097%=      5-min Rain = 0
KTIS 261810Z 16011KT 20/18 A3001 RMK A01 T01960183  RH  097%=      5-min Rain = 0
KTIS 261815Z 15012KT 20/18 A3001 RMK A01 T01970183  RH  097%=      5-min Rain = 0
KTIS 261820Z 16012KT 20/18 A3001 RMK A01 T01960183  RH  097%=      5-min Rain = 0
KTIS 261825Z 16012KT 20/18 A3001 RMK A01 T01960183  RH  097%=      5-min Rain = 0
KTIS 261830Z 16010KT 20/18 A3001 RMK A01 T01980184  RH  097%=      5-min Rain = 0
KTIS 261835Z 16013KT 20/18 A3001 RMK A01 T01970184  RH  097%=      5-min Rain = 0
KTIS 261840Z 15013KT 20/18 A3001 RMK A01 T01980184  RH  097%=      5-min Rain = 0
KTIS 261845Z 15013KT 20/18 A3001 RMK A01 T01980184  RH  097%=      5-min Rain = 0
KTIS 261850Z 15012KT 20/18 A3001 RMK A01 T01990184  RH  097%=      5-min Rain = 0
KTIS 261855Z 15012KT 20/19 A3001 RMK A01 T01990185  RH  096%=      5-min Rain = 0
KTIS 261900Z 15014G19KT 20/18 A3001 RMK A01 T01990184  RH  096%=      5-min Rain = 0
KTIS 261905Z 15014KT 20/18 A3002 RMK A01 T01980183  RH  096%=      5-min Rain = 0
KTIS 261910Z 16014KT 20/18 A3002 RMK A01 T01990184  RH  096%=      5-min Rain = 0
KTIS 261915Z 16013KT 20/18 A3002 RMK A01 T01990183  RH  095%=      5-min Rain = 0
KTIS 261920Z 16013G18KT 20/18 A3002 RMK A01 T02000183  RH  095%=      5-min Rain = 0
KTIS 261925Z 17015KT 20/18 A3003 RMK A01 T02000183  RH  095%=      5-min Rain = 0
KTIS 261930Z 17013KT 20/18 A3002 RMK A01 T02010182  RH  094%=      5-min Rain = 0
KTIS 261935Z 16012KT 20/18 A3002 RMK A01 T02020184  RH  094%=      5-min Rain = 0
KTIS 261940Z 16012G17KT 20/18 A3002 RMK A01 T02030184  RH  094%=      5-min Rain = 0
KTIS 261945Z 15011KT 21/19 A3002 RMK A01 T02050187  RH  095%=      5-min Rain = 0
KTIS 261950Z 15011KT 21/19 A3001 RMK A01 T02080189  RH  094%=      5-min Rain = 0
KTIS 261955Z 16013G18KT 21/19 A3001 RMK A01 T02100189  RH  093%=      5-min Rain = 0
KTIS 262000Z 15014KT 21/19 A30 RMK A01 T02110188  RH  091%=      5-min Rain = 0
KTIS 262005Z 15016G21KT 21/19 A30 RMK A01 T02110186  RH  090%=      5-min Rain = 0
KTIS 262010Z 16016KT 21/19 A30 RMK A01 T02110185  RH  090%=      5-min Rain = 0
KTIS 262015Z 16014KT 21/19 A30 RMK A01 T02120187  RH  090%=      5-min Rain = 0
KTIS 262020Z 17016G21KT 21/19 A30 RMK A01 T02110185  RH  090%=      5-min Rain = 0
KTIS 262025Z 16015G21KT 21/18 A30 RMK A01 T02110184  RH  089%=      5-min Rain = 0
KTIS 262030Z 16014G19KT 21/18 A2999 RMK A01 T02090183  RH  090%=      5-min Rain = 0
KTIS 262035Z 17013G19KT 21/19 A30 RMK A01 T02100185  RH  091%=      5-min Rain = 0
KTIS 262040Z 17015G20KT 21/19 A2999 RMK A01 T02110185  RH  090%=      5-min Rain = 0
KTIS 262045Z 17015KT 21/18 A2999 RMK A01 T02130184  RH  088%=      5-min Rain = 0
KTIS 262050Z 15015G20KT 21/19 A2998 RMK A01 T02130185  RH  089%=      5-min Rain = 0
KTIS 262055Z 15015G20KT 21/18 A2998 RMK A01 T02110184  RH  090%=      5-min Rain = 0
KTIS 262100Z 14013KT 21/19 A2997 RMK A01 T02100185  RH  090%=      5-min Rain = 0
KTIS 262105Z 14014G20KT 21/19 A2997 RMK A01 T02090185  RH  091%=      5-min Rain = 0
KTIS 262110Z 13013KT 21/19 A2996 RMK A01 T02080185  RH  092%=      5-min Rain = 0
KTIS 262115Z 13013KT 21/19 A2995 RMK A01 T02090186  RH  092%=      5-min Rain = 0
KTIS 262120Z 14014KT 21/19 A2996 RMK A01 T02090186  RH  092%=      5-min Rain = 0
KTIS 262125Z 14015G20KT 21/19 A2996 RMK A01 T02090186  RH  092%=      5-min Rain = 0
KTIS 262130Z 15016KT 21/19 A2996 RMK A01 T02090186  RH  092%=      5-min Rain = 0
KTIS 262135Z 15014KT 21/19 A2996 RMK A01 T02090186  RH  092%=      5-min Rain = 0
KTIS 262140Z 15014G19KT 21/19 A2996 RMK A01 T02080185  RH  092%=      5-min Rain = 0
KTIS 262145Z 14017G22KT 21/19 A2995 RMK A01 T02070185  RH  092%=      5-min Rain = 0
KTIS 262150Z 14016G23KT 21/19 A2994 RMK A01 T02070185  RH  092%=      5-min Rain = 0
KTIS 262155Z 13016G21KT 21/19 A2993 RMK A01 T02070185  RH  092%=      5-min Rain = 0
KTIS 262200Z 13016G22KT 21/19 A2992 RMK A01 T02090187  RH  092%=      5-min Rain = 0
KTIS 262205Z 13014G20KT 21/19 A2992 RMK A01 T02120189  RH  092%=      5-min Rain = 0
KTIS 262210Z 14017G23KT 21/19 A2992 RMK A01 T02130189  RH  091%=      5-min Rain = 0
KTIS 262215Z 13016G26KT 21/19 A2992 RMK A01 T02140190  RH  091%=      5-min Rain = 0
KTIS 262220Z 14018G25KT 21/19 A2992 RMK A01 T02120188  RH  091%=      5-min Rain = 0
KTIS 262225Z 14018G26KT 21/19 A2992 RMK A01 T02120188  RH  091%=      5-min Rain = 0
KTIS 262230Z 14020G25KT 21/19 A2992 RMK A01 T02110186  RH  091%=      5-min Rain = 0
KTIS 262235Z 14020G27KT 21/19 A2992 RMK A01 T02100185  RH  091%=      5-min Rain = 0
KTIS 262240Z 15015G22KT 21/19 A2992 RMK A01 T02090186  RH  091%=      5-min Rain = 0
KTIS 262245Z 15018G26KT 21/19 A2993 RMK A01 T02090186  RH  091%=      5-min Rain = 0
KTIS 262250Z 14017G23KT 21/19 A2991 RMK A01 T02090185  RH  091%=      5-min Rain = 0
KTIS 262255Z 13020G27KT 21/19 A2989 RMK A01 T02110187  RH  091%=      5-min Rain = 0
KTIS 262300Z 13018G26KT 21/19 A2989 RMK A01 T02140188  RH  090%=      5-min Rain = 0
KTIS 262305Z 14019G26KT 21/19 A2989 RMK A01 T02140188  RH  090%=      5-min Rain = 0
KTIS 262310Z 14018G25KT 22/19 A299 RMK A01 T02150189  RH  090%=      5-min Rain = 0
KTIS 262315Z 14020G26KT 22/19 A2989 RMK A01 T02160189  RH  089%=      5-min Rain = 0
KTIS 262320Z 14021G26KT 22/19 A2989 RMK A01 T02160187  RH  088%=      5-min Rain = 0
KTIS 262325Z 15020G26KT 22/19 A299 RMK A01 T02150187  RH  089%=      5-min Rain = 0
KTIS 262330Z 15022G30KT 21/19 A299 RMK A01 T02140186  RH  089%=      5-min Rain = 0
KTIS 262335Z 16023G30KT 21/19 A2991 RMK A01 T02140185  RH  088%=      5-min Rain = 0
KTIS 262340Z 16022G29KT 21/18 A2991 RMK A01 T02130184  RH  088%=      5-min Rain = 0
KTIS 262345Z 15020KT 21/19 A2991 RMK A01 T02140186  RH  089%=      5-min Rain = 0
KTIS 262350Z 15019G25KT 21/19 A299 RMK A01 T02140186  RH  089%=      5-min Rain = 0
KTIS 262355Z 15016KT 22/19 A2989 RMK A01 T02150186  RH  089%=      5-min Rain = 0
KTIS 270000Z 16017G22KT 22/19 A2989 RMK A01 T02150187  RH  089%=      5-min Rain = 0
KTIS 270005Z 15017G24KT 22/19 A2989 RMK A01 T02150186  RH  089%=      5-min Rain = 0
KTIS 270010Z 16018G25KT 22/19 A2989 RMK A01 T02150186  RH  089%=      5-min Rain = 0
KTIS 270015Z 15017G23KT 22/19 A2988 RMK A01 T02160187  RH  088%=      5-min Rain = 0
KTIS 270020Z 15019G28KT 22/19 A2988 RMK A01 T02170187  RH  088%=      5-min Rain = 0
KTIS 270025Z 15018G24KT 22/19 A2988 RMK A01 T02170187  RH  088%=      5-min Rain = 0
KTIS 270030Z 15016G22KT 22/19 A2987 RMK A01 T02160187  RH  088%=      5-min Rain = 0
KTIS 270035Z 15019G25KT 22/19 A2987 RMK A01 T02150186  RH  088%=      5-min Rain = 0
KTIS 270040Z 15016G23KT 22/19 A2986 RMK A01 T02150186  RH  088%=      5-min Rain = 0
KTIS 270045Z 15019G25KT 21/19 A2985 RMK A01 T02140186  RH  089%=      5-min Rain = 0
KTIS 270050Z 14018G23KT 21/19 A2984 RMK A01 T02130186  RH  089%=      5-min Rain = 0
KTIS 270055Z 14017G23KT 21/19 A2985 RMK A01 T02130185  RH  089%=      5-min Rain = 0
KTIS 270100Z 15017G23KT 21/19 A2985 RMK A01 T02130186  RH  089%=      5-min Rain = 0
KTIS 270105Z 15017G24KT 21/19 A2986 RMK A01 T02130185  RH  089%=      5-min Rain = 0
KTIS 270110Z 15016G21KT 21/19 A2987 RMK A01 T02130186  RH  089%=      5-min Rain = 0
KTIS 270115Z 15015KT 21/19 A2988 RMK A01 T02140186  RH  089%=      5-min Rain = 0
KTIS 270120Z 15017G22KT 21/19 A2988 RMK A01 T02140186  RH  089%=      5-min Rain = 0
KTIS 270125Z 15016G21KT 21/19 A2989 RMK A01 T02140186  RH  089%=      5-min Rain = 0
KTIS 270130Z 15015G21KT 21/19 A2989 RMK A01 T02130186  RH  089%=      5-min Rain = 0
KTIS 270135Z 15015G21KT 21/19 A2989 RMK A01 T02130185  RH  089%=      5-min Rain = 0
KTIS 270140Z 15014G19KT 21/19 A2989 RMK A01 T02120185  RH  089%=      5-min Rain = 0
KTIS 270145Z 15016G22KT 21/19 A2988 RMK A01 T02110185  RH  090%=      5-min Rain = 0
KTIS 270150Z 14015G20KT 21/19 A2988 RMK A01 T02110185  RH  090%=      5-min Rain = 0
KTIS 270155Z 15016G21KT 21/19 A2988 RMK A01 T02100185  RH  090%=      5-min Rain = 0
KTIS 270200Z 15015KT 21/18 A2988 RMK A01 T02090184  RH  091%=      5-min Rain = 0
KTIS 270205Z 15016G24KT 21/18 A2988 RMK A01 T02090184  RH  090%=      5-min Rain = 0
KTIS 270210Z 15014KT 21/18 A2989 RMK A01 T02090183  RH  090%=      5-min Rain = 0
KTIS 270215Z 15015KT 21/18 A2989 RMK A01 T02090183  RH  090%=      5-min Rain = 0
KTIS 270220Z 15014KT 21/18 A299 RMK A01 T02090182  RH  089%=      5-min Rain = 0
KTIS 270225Z 15014G19KT 21/18 A299 RMK A01 T02090182  RH  089%=      5-min Rain = 0
KTIS 270230Z 16012KT 21/18 A2991 RMK A01 T02090182  RH  089%=      5-min Rain = 0
KTIS 270235Z 15010KT 21/18 A2991 RMK A01 T02090182  RH  089%=      5-min Rain = 0
KTIS 270240Z 15011G16KT 21/18 A2991 RMK A01 T02080182  RH  090%=      5-min Rain = 0
KTIS 270245Z 16008G13KT 21/18 A2991 RMK A01 T02080182  RH  090%=      5-min Rain = 0
KTIS 270250Z 17007KT 21/18 A2992 RMK A01 T02080182  RH  090%=      5-min Rain = 0
KTIS 270255Z 18008KT 21/18 A2993 RMK A01 T02080182  RH  090%=      5-min Rain = 0
KTIS 270300Z 22007KT 21/18 A2994 RMK A01 T02090182  RH  089%=      5-min Rain = 0
KTIS 270305Z 25007KT 21/18 A2995 RMK A01 T02080183  RH  090%=      5-min Rain = 0
KTIS 270310Z 22004KT 21/18 A2994 RMK A01 T02080183  RH  090%=      5-min Rain = 0
KTIS 270315Z 18003KT 21/18 A2994 RMK A01 T02080182  RH  090%=      5-min Rain = 0
KTIS 270320Z 19003KT 21/18 A2995 RMK A01 T02080182  RH  090%=      5-min Rain = 0
KTIS 270325Z 18006KT 21/18 A2995 RMK A01 T02110180  RH  087%=      5-min Rain = 0.01
KTIS 270330Z 16010G19KT 21/18 A2994 RMK A01 T02120179  RH  085%=      5-min Rain = 0
KTIS 270335Z 13014G19KT 21/18 A2992 RMK A01 T02120179  RH  086%=      5-min Rain = 0.01
KTIS 270340Z 13014KT 21/18 A2991 RMK A01 T02090178  RH  087%=      5-min Rain = 0
KTIS 270345Z 14018G24KT 21/18 A299 RMK A01 T02100177  RH  086%=      5-min Rain = 0
KTIS 270350Z 12015KT 21/18 A2988 RMK A01 T02090177  RH  086%=      5-min Rain = 0
KTIS 270355Z 13015KT 21/18 A2989 RMK A01 T02100177  RH  086%=      5-min Rain = 0
KTIS 270400Z 13014G21KT 21/18 A2989 RMK A01 T02100176  RH  085%=      5-min Rain = 0
KTIS 270405Z 13012G17KT 21/18 A2989 RMK A01 T02090176  RH  086%=      5-min Rain = 0
KTIS 270410Z 12012G17KT 21/18 A2988 RMK A01 T02090176  RH  086%=      5-min Rain = 0
KTIS 270415Z 12013G18KT 21/18 A2987 RMK A01 T02080175  RH  086%=      5-min Rain = 0
KTIS 270420Z 14012G24KT 21/18 A2988 RMK A01 T02060175  RH  087%=      5-min Rain = 0
KTIS 270425Z 22008G13KT 21/18 A2992 RMK A01 T02070176  RH  087%=      5-min Rain = 0
KTIS 270430Z 26008KT 21/18 A2994 RMK A01 T02070176  RH  087%=      5-min Rain = 0
KTIS 270435Z 23005KT 21/18 A2993 RMK A01 T02070176  RH  087%=      5-min Rain = 0
KTIS 270440Z 19003KT 21/18 A2992 RMK A01 T02050177  RH  088%=      5-min Rain = 0
KTIS 270445Z 19003KT 20/18 A2991 RMK A01 T02040177  RH  089%=      5-min Rain = 0
KTIS 270450Z 19004KT 20/18 A2991 RMK A01 T02040176  RH  088%=      5-min Rain = 0
KTIS 270455Z 15006KT 20/18 A2991 RMK A01 T02030176  RH  089%=      5-min Rain = 0

Page generated in 0.0097 seconds.